sensor_id;sensor_type;location;lat;lon;timestamp;P1;durP1;ratioP1;P2;durP2;ratioP2
53409;SDS011;66590;50.734;4.246;2023-05-16T00:01:09;15.65;;;2.95;;
53409;SDS011;66590;50.734;4.246;2023-05-16T00:03:36;18.58;;;4.05;;
53409;SDS011;66590;50.734;4.246;2023-05-16T00:06:04;16.70;;;4.20;;
53409;SDS011;66590;50.734;4.246;2023-05-16T00:08:32;14.95;;;3.60;;
53409;SDS011;66590;50.734;4.246;2023-05-16T00:10:59;19.10;;;3.67;;
53409;SDS011;66590;50.734;4.246;2023-05-16T00:13:26;16.05;;;3.60;;
53409;SDS011;66590;50.734;4.246;2023-05-16T00:15:53;19.52;;;4.25;;
53409;SDS011;66590;50.734;4.246;2023-05-16T00:18:21;18.23;;;3.80;;
53409;SDS011;66590;50.734;4.246;2023-05-16T00:20:48;14.70;;;3.40;;
53409;SDS011;66590;50.734;4.246;2023-05-16T00:23:16;15.35;;;3.72;;
53409;SDS011;66590;50.734;4.246;2023-05-16T00:25:43;17.38;;;3.15;;
53409;SDS011;66590;50.734;4.246;2023-05-16T00:28:10;18.42;;;3.75;;
53409;SDS011;66590;50.734;4.246;2023-05-16T00:30:37;19.25;;;3.92;;
53409;SDS011;66590;50.734;4.246;2023-05-16T00:33:04;11.88;;;3.28;;
53409;SDS011;66590;50.734;4.246;2023-05-16T00:35:31;18.52;;;3.20;;
53409;SDS011;66590;50.734;4.246;2023-05-16T00:37:58;16.63;;;3.28;;
53409;SDS011;66590;50.734;4.246;2023-05-16T00:40:27;16.45;;;4.07;;
53409;SDS011;66590;50.734;4.246;2023-05-16T00:42:54;14.23;;;3.20;;
53409;SDS011;66590;50.734;4.246;2023-05-16T00:45:21;14.75;;;3.13;;
53409;SDS011;66590;50.734;4.246;2023-05-16T00:47:48;13.82;;;3.35;;
53409;SDS011;66590;50.734;4.246;2023-05-16T00:50:15;18.30;;;3.47;;
53409;SDS011;66590;50.734;4.246;2023-05-16T00:52:43;18.77;;;3.78;;
53409;SDS011;66590;50.734;4.246;2023-05-16T00:55:10;23.88;;;3.72;;
53409;SDS011;66590;50.734;4.246;2023-05-16T00:57:38;19.67;;;3.92;;
53409;SDS011;66590;50.734;4.246;2023-05-16T01:00:06;17.30;;;3.58;;
53409;SDS011;66590;50.734;4.246;2023-05-16T01:02:34;18.45;;;3.65;;
53409;SDS011;66590;50.734;4.246;2023-05-16T01:05:03;21.70;;;4.03;;
53409;SDS011;66590;50.734;4.246;2023-05-16T01:07:30;18.75;;;3.50;;
53409;SDS011;66590;50.734;4.246;2023-05-16T01:09:57;16.58;;;3.53;;
53409;SDS011;66590;50.734;4.246;2023-05-16T01:12:27;19.83;;;3.67;;
53409;SDS011;66590;50.734;4.246;2023-05-16T01:15:06;16.17;;;3.50;;
53409;SDS011;66590;50.734;4.246;2023-05-16T01:17:37;24.80;;;3.58;;
53409;SDS011;66590;50.734;4.246;2023-05-16T01:20:12;16.83;;;3.72;;
53409;SDS011;66590;50.734;4.246;2023-05-16T01:22:49;18.25;;;3.80;;
53409;SDS011;66590;50.734;4.246;2023-05-16T01:25:29;16.63;;;3.75;;
53409;SDS011;66590;50.734;4.246;2023-05-16T01:28:02;18.70;;;3.58;;
53409;SDS011;66590;50.734;4.246;2023-05-16T01:30:31;23.67;;;3.97;;
53409;SDS011;66590;50.734;4.246;2023-05-16T01:32:59;16.45;;;3.13;;
53409;SDS011;66590;50.734;4.246;2023-05-16T01:35:26;14.95;;;3.92;;
53409;SDS011;66590;50.734;4.246;2023-05-16T01:37:56;17.73;;;3.60;;
53409;SDS011;66590;50.734;4.246;2023-05-16T01:43:02;19.80;;;3.85;;
53409;SDS011;66590;50.734;4.246;2023-05-16T01:45:34;27.45;;;4.63;;
53409;SDS011;66590;50.734;4.246;2023-05-16T01:48:09;18.23;;;3.28;;
53409;SDS011;66590;50.734;4.246;2023-05-16T01:50:42;16.77;;;3.83;;
53409;SDS011;66590;50.734;4.246;2023-05-16T01:53:14;17.73;;;3.50;;
53409;SDS011;66590;50.734;4.246;2023-05-16T01:55:44;11.07;;;3.40;;
53409;SDS011;66590;50.734;4.246;2023-05-16T01:58:14;18.75;;;3.85;;
53409;SDS011;66590;50.734;4.246;2023-05-16T02:00:43;18.30;;;3.47;;
53409;SDS011;66590;50.734;4.246;2023-05-16T02:03:10;16.35;;;3.38;;
53409;SDS011;66590;50.734;4.246;2023-05-16T02:05:37;14.73;;;3.40;;
53409;SDS011;66590;50.734;4.246;2023-05-16T02:08:04;14.98;;;2.97;;
53409;SDS011;66590;50.734;4.246;2023-05-16T02:10:31;17.17;;;3.78;;
53409;SDS011;66590;50.734;4.246;2023-05-16T02:12:58;17.13;;;3.45;;
53409;SDS011;66590;50.734;4.246;2023-05-16T02:15:27;21.00;;;3.30;;
53409;SDS011;66590;50.734;4.246;2023-05-16T02:17:54;13.00;;;3.33;;
53409;SDS011;66590;50.734;4.246;2023-05-16T02:20:21;21.02;;;4.18;;
53409;SDS011;66590;50.734;4.246;2023-05-16T02:22:48;17.17;;;3.50;;
53409;SDS011;66590;50.734;4.246;2023-05-16T02:25:15;18.73;;;3.55;;
53409;SDS011;66590;50.734;4.246;2023-05-16T02:27:42;16.58;;;3.30;;
53409;SDS011;66590;50.734;4.246;2023-05-16T02:30:09;15.07;;;3.53;;
53409;SDS011;66590;50.734;4.246;2023-05-16T02:32:38;12.75;;;3.05;;
53409;SDS011;66590;50.734;4.246;2023-05-16T02:35:06;14.25;;;3.80;;
53409;SDS011;66590;50.734;4.246;2023-05-16T02:37:33;15.60;;;3.40;;
53409;SDS011;66590;50.734;4.246;2023-05-16T02:40:00;19.83;;;4.07;;
53409;SDS011;66590;50.734;4.246;2023-05-16T02:42:27;19.02;;;3.53;;
53409;SDS011;66590;50.734;4.246;2023-05-16T02:44:54;22.65;;;4.72;;
53409;SDS011;66590;50.734;4.246;2023-05-16T02:47:21;15.00;;;3.15;;
53409;SDS011;66590;50.734;4.246;2023-05-16T02:49:50;18.08;;;3.63;;
53409;SDS011;66590;50.734;4.246;2023-05-16T02:52:17;19.52;;;3.80;;
53409;SDS011;66590;50.734;4.246;2023-05-16T02:54:44;17.88;;;3.88;;
53409;SDS011;66590;50.734;4.246;2023-05-16T02:57:25;20.95;;;3.65;;
53409;SDS011;66590;50.734;4.246;2023-05-16T02:59:52;21.00;;;4.03;;
53409;SDS011;66590;50.734;4.246;2023-05-16T03:02:19;18.25;;;3.90;;
53409;SDS011;66590;50.734;4.246;2023-05-16T03:04:46;15.25;;;3.50;;
53409;SDS011;66590;50.734;4.246;2023-05-16T03:07:14;15.05;;;3.78;;
53409;SDS011;66590;50.734;4.246;2023-05-16T03:09:41;16.85;;;4.05;;
53409;SDS011;66590;50.734;4.246;2023-05-16T03:12:08;16.13;;;3.95;;
53409;SDS011;66590;50.734;4.246;2023-05-16T03:14:35;15.23;;;3.42;;
53409;SDS011;66590;50.734;4.246;2023-05-16T03:17:02;19.42;;;3.70;;
53409;SDS011;66590;50.734;4.246;2023-05-16T03:19:29;22.42;;;3.78;;
53409;SDS011;66590;50.734;4.246;2023-05-16T03:21:56;21.88;;;4.45;;
53409;SDS011;66590;50.734;4.246;2023-05-16T03:24:25;18.15;;;4.38;;
53409;SDS011;66590;50.734;4.246;2023-05-16T03:26:52;14.80;;;3.65;;
53409;SDS011;66590;50.734;4.246;2023-05-16T03:29:19;13.07;;;3.63;;
53409;SDS011;66590;50.734;4.246;2023-05-16T03:31:46;24.75;;;4.28;;
53409;SDS011;66590;50.734;4.246;2023-05-16T03:34:13;15.77;;;3.90;;
53409;SDS011;66590;50.734;4.246;2023-05-16T03:36:40;20.88;;;4.53;;
53409;SDS011;66590;50.734;4.246;2023-05-16T03:39:07;14.45;;;3.92;;
53409;SDS011;66590;50.734;4.246;2023-05-16T03:41:35;20.70;;;4.15;;
53409;SDS011;66590;50.734;4.246;2023-05-16T03:44:02;15.68;;;4.93;;
53409;SDS011;66590;50.734;4.246;2023-05-16T03:46:30;18.75;;;4.50;;
53409;SDS011;66590;50.734;4.246;2023-05-16T03:48:57;17.95;;;4.20;;
53409;SDS011;66590;50.734;4.246;2023-05-16T03:51:24;20.52;;;4.03;;
53409;SDS011;66590;50.734;4.246;2023-05-16T03:53:51;19.52;;;4.22;;
53409;SDS011;66590;50.734;4.246;2023-05-16T03:56:17;17.85;;;4.22;;
53409;SDS011;66590;50.734;4.246;2023-05-16T03:58:46;19.58;;;3.95;;
53409;SDS011;66590;50.734;4.246;2023-05-16T04:01:13;20.48;;;4.25;;
53409;SDS011;66590;50.734;4.246;2023-05-16T04:03:40;12.70;;;4.13;;
53409;SDS011;66590;50.734;4.246;2023-05-16T04:06:07;16.15;;;3.67;;
53409;SDS011;66590;50.734;4.246;2023-05-16T04:08:34;16.70;;;4.15;;
53409;SDS011;66590;50.734;4.246;2023-05-16T04:11:01;18.67;;;3.97;;
53409;SDS011;66590;50.734;4.246;2023-05-16T04:13:28;14.27;;;3.55;;
53409;SDS011;66590;50.734;4.246;2023-05-16T04:15:57;19.95;;;4.55;;
53409;SDS011;66590;50.734;4.246;2023-05-16T04:18:23;18.67;;;4.10;;
53409;SDS011;66590;50.734;4.246;2023-05-16T04:20:51;19.10;;;3.90;;
53409;SDS011;66590;50.734;4.246;2023-05-16T04:23:18;16.35;;;4.03;;
53409;SDS011;66590;50.734;4.246;2023-05-16T04:25:44;18.13;;;4.10;;
53409;SDS011;66590;50.734;4.246;2023-05-16T04:28:11;12.43;;;4.30;;
53409;SDS011;66590;50.734;4.246;2023-05-16T04:30:38;20.48;;;4.45;;
53409;SDS011;66590;50.734;4.246;2023-05-16T04:33:07;18.65;;;4.38;;
53409;SDS011;66590;50.734;4.246;2023-05-16T04:35:34;15.07;;;3.47;;
53409;SDS011;66590;50.734;4.246;2023-05-16T04:38:01;19.05;;;4.38;;
53409;SDS011;66590;50.734;4.246;2023-05-16T04:40:28;17.25;;;4.72;;
53409;SDS011;66590;50.734;4.246;2023-05-16T04:42:54;12.40;;;4.30;;
53409;SDS011;66590;50.734;4.246;2023-05-16T04:45:22;10.75;;;4.18;;
53409;SDS011;66590;50.734;4.246;2023-05-16T04:47:49;17.17;;;4.55;;
53409;SDS011;66590;50.734;4.246;2023-05-16T04:50:17;18.70;;;4.70;;
53409;SDS011;66590;50.734;4.246;2023-05-16T04:52:44;16.58;;;4.80;;
53409;SDS011;66590;50.734;4.246;2023-05-16T04:55:11;11.77;;;4.38;;
53409;SDS011;66590;50.734;4.246;2023-05-16T04:57:38;15.88;;;4.18;;
53409;SDS011;66590;50.734;4.246;2023-05-16T05:00:05;12.20;;;4.15;;
53409;SDS011;66590;50.734;4.246;2023-05-16T05:02:33;13.02;;;4.20;;
53409;SDS011;66590;50.734;4.246;2023-05-16T05:05:00;16.25;;;4.53;;
53409;SDS011;66590;50.734;4.246;2023-05-16T05:07:29;15.05;;;4.00;;
53409;SDS011;66590;50.734;4.246;2023-05-16T05:09:56;17.00;;;3.83;;
53409;SDS011;66590;50.734;4.246;2023-05-16T05:12:23;12.48;;;3.75;;
53409;SDS011;66590;50.734;4.246;2023-05-16T05:14:50;17.60;;;4.78;;
53409;SDS011;66590;50.734;4.246;2023-05-16T05:17:17;14.88;;;4.30;;
53409;SDS011;66590;50.734;4.246;2023-05-16T05:19:44;16.90;;;4.57;;
53409;SDS011;66590;50.734;4.246;2023-05-16T05:22:11;17.50;;;4.43;;
53409;SDS011;66590;50.734;4.246;2023-05-16T05:24:40;17.27;;;4.15;;
53409;SDS011;66590;50.734;4.246;2023-05-16T05:27:07;17.13;;;3.90;;
53409;SDS011;66590;50.734;4.246;2023-05-16T05:29:34;21.23;;;4.43;;
53409;SDS011;66590;50.734;4.246;2023-05-16T05:32:01;20.30;;;4.13;;
53409;SDS011;66590;50.734;4.246;2023-05-16T05:34:28;21.25;;;4.80;;
53409;SDS011;66590;50.734;4.246;2023-05-16T05:36:55;15.93;;;3.92;;
53409;SDS011;66590;50.734;4.246;2023-05-16T05:39:23;15.48;;;4.40;;
53409;SDS011;66590;50.734;4.246;2023-05-16T05:41:51;17.23;;;4.30;;
53409;SDS011;66590;50.734;4.246;2023-05-16T05:44:18;18.83;;;4.63;;
53409;SDS011;66590;50.734;4.246;2023-05-16T05:46:45;17.02;;;3.78;;
53409;SDS011;66590;50.734;4.246;2023-05-16T05:49:12;15.77;;;3.30;;
53409;SDS011;66590;50.734;4.246;2023-05-16T05:51:39;15.50;;;3.65;;
53409;SDS011;66590;50.734;4.246;2023-05-16T05:54:06;18.00;;;3.45;;
53409;SDS011;66590;50.734;4.246;2023-05-16T05:56:33;11.40;;;3.45;;
53409;SDS011;66590;50.734;4.246;2023-05-16T05:59:02;21.08;;;3.53;;
53409;SDS011;66590;50.734;4.246;2023-05-16T06:01:29;17.83;;;3.50;;
53409;SDS011;66590;50.734;4.246;2023-05-16T06:03:56;15.13;;;3.13;;
53409;SDS011;66590;50.734;4.246;2023-05-16T06:06:25;12.70;;;3.50;;
53409;SDS011;66590;50.734;4.246;2023-05-16T06:08:52;13.60;;;2.70;;
53409;SDS011;66590;50.734;4.246;2023-05-16T06:11:19;20.10;;;3.60;;
53409;SDS011;66590;50.734;4.246;2023-05-16T06:13:46;11.70;;;2.60;;
53409;SDS011;66590;50.734;4.246;2023-05-16T06:16:14;12.45;;;2.70;;
53409;SDS011;66590;50.734;4.246;2023-05-16T06:18:41;11.35;;;2.60;;
53409;SDS011;66590;50.734;4.246;2023-05-16T06:21:08;8.88;;;2.28;;
53409;SDS011;66590;50.734;4.246;2023-05-16T06:23:35;12.45;;;2.42;;
53409;SDS011;66590;50.734;4.246;2023-05-16T06:26:02;14.00;;;2.42;;
53409;SDS011;66590;50.734;4.246;2023-05-16T06:28:29;11.75;;;2.67;;
53409;SDS011;66590;50.734;4.246;2023-05-16T06:30:57;12.00;;;2.00;;
53409;SDS011;66590;50.734;4.246;2023-05-16T06:33:25;7.68;;;2.53;;
53409;SDS011;66590;50.734;4.246;2023-05-16T06:35:52;9.93;;;2.40;;
53409;SDS011;66590;50.734;4.246;2023-05-16T06:38:19;9.70;;;2.22;;
53409;SDS011;66590;50.734;4.246;2023-05-16T06:40:46;8.77;;;1.88;;
53409;SDS011;66590;50.734;4.246;2023-05-16T06:43:13;5.70;;;1.92;;
53409;SDS011;66590;50.734;4.246;2023-05-16T06:45:40;6.45;;;2.30;;
53409;SDS011;66590;50.734;4.246;2023-05-16T06:48:07;13.68;;;3.08;;
53409;SDS011;66590;50.734;4.246;2023-05-16T06:50:35;10.32;;;2.42;;
53409;SDS011;66590;50.734;4.246;2023-05-16T06:53:02;11.15;;;2.70;;
53409;SDS011;66590;50.734;4.246;2023-05-16T06:55:29;8.23;;;2.30;;
53409;SDS011;66590;50.734;4.246;2023-05-16T06:57:56;5.97;;;1.80;;
53409;SDS011;66590;50.734;4.246;2023-05-16T07:00:23;11.00;;;2.28;;
53409;SDS011;66590;50.734;4.246;2023-05-16T07:02:51;8.68;;;2.13;;
53409;SDS011;66590;50.734;4.246;2023-05-16T07:05:18;8.93;;;2.15;;
53409;SDS011;66590;50.734;4.246;2023-05-16T07:07:46;9.73;;;2.35;;
53409;SDS011;66590;50.734;4.246;2023-05-16T07:10:13;9.95;;;2.15;;
53409;SDS011;66590;50.734;4.246;2023-05-16T07:12:41;10.70;;;2.00;;
53409;SDS011;66590;50.734;4.246;2023-05-16T07:15:08;9.27;;;2.00;;
53409;SDS011;66590;50.734;4.246;2023-05-16T07:17:36;6.20;;;2.00;;
53409;SDS011;66590;50.734;4.246;2023-05-16T07:20:03;6.95;;;1.60;;
53409;SDS011;66590;50.734;4.246;2023-05-16T07:22:31;10.25;;;1.80;;
53409;SDS011;66590;50.734;4.246;2023-05-16T07:24:59;11.68;;;2.30;;
53409;SDS011;66590;50.734;4.246;2023-05-16T07:27:27;6.25;;;2.00;;
53409;SDS011;66590;50.734;4.246;2023-05-16T07:29:53;8.02;;;1.98;;
53409;SDS011;66590;50.734;4.246;2023-05-16T07:32:20;9.45;;;2.10;;
53409;SDS011;66590;50.734;4.246;2023-05-16T07:34:47;7.97;;;1.92;;
53409;SDS011;66590;50.734;4.246;2023-05-16T07:37:15;8.70;;;2.30;;
53409;SDS011;66590;50.734;4.246;2023-05-16T07:39:42;9.70;;;1.80;;
53409;SDS011;66590;50.734;4.246;2023-05-16T07:42:10;9.80;;;2.10;;
53409;SDS011;66590;50.734;4.246;2023-05-16T07:44:37;7.95;;;1.90;;
53409;SDS011;66590;50.734;4.246;2023-05-16T07:47:04;6.18;;;1.70;;
53409;SDS011;66590;50.734;4.246;2023-05-16T07:49:31;7.78;;;1.63;;
53409;SDS011;66590;50.734;4.246;2023-05-16T07:51:58;5.53;;;1.73;;
53409;SDS011;66590;50.734;4.246;2023-05-16T07:54:25;5.32;;;1.42;;
53409;SDS011;66590;50.734;4.246;2023-05-16T07:56:52;9.00;;;1.88;;
53409;SDS011;66590;50.734;4.246;2023-05-16T07:59:21;8.63;;;1.75;;
53409;SDS011;66590;50.734;4.246;2023-05-16T08:01:48;7.60;;;1.48;;
53409;SDS011;66590;50.734;4.246;2023-05-16T08:04:15;9.23;;;2.22;;
53409;SDS011;66590;50.734;4.246;2023-05-16T08:06:42;8.77;;;2.10;;
53409;SDS011;66590;50.734;4.246;2023-05-16T08:09:09;6.53;;;2.00;;
53409;SDS011;66590;50.734;4.246;2023-05-16T08:11:36;5.88;;;1.73;;
53409;SDS011;66590;50.734;4.246;2023-05-16T08:14:03;8.98;;;2.13;;
53409;SDS011;66590;50.734;4.246;2023-05-16T08:16:31;8.27;;;1.98;;
53409;SDS011;66590;50.734;4.246;2023-05-16T08:18:58;10.88;;;3.10;;
53409;SDS011;66590;50.734;4.246;2023-05-16T08:21:25;9.77;;;2.25;;
53409;SDS011;66590;50.734;4.246;2023-05-16T08:23:53;8.05;;;1.90;;
53409;SDS011;66590;50.734;4.246;2023-05-16T08:26:20;16.73;;;2.85;;
53409;SDS011;66590;50.734;4.246;2023-05-16T08:28:47;6.80;;;1.98;;
53409;SDS011;66590;50.734;4.246;2023-05-16T08:31:13;10.32;;;1.95;;
53409;SDS011;66590;50.734;4.246;2023-05-16T08:33:42;9.63;;;1.80;;
53409;SDS011;66590;50.734;4.246;2023-05-16T08:36:09;11.10;;;2.20;;
53409;SDS011;66590;50.734;4.246;2023-05-16T08:38:36;10.98;;;2.28;;
53409;SDS011;66590;50.734;4.246;2023-05-16T08:41:03;5.88;;;1.40;;
53409;SDS011;66590;50.734;4.246;2023-05-16T08:43:30;11.73;;;2.05;;
53409;SDS011;66590;50.734;4.246;2023-05-16T08:45:57;8.30;;;1.80;;
53409;SDS011;66590;50.734;4.246;2023-05-16T08:48:24;11.15;;;1.70;;
53409;SDS011;66590;50.734;4.246;2023-05-16T08:50:55;9.63;;;2.03;;
53409;SDS011;66590;50.734;4.246;2023-05-16T08:53:24;6.35;;;1.70;;
53409;SDS011;66590;50.734;4.246;2023-05-16T08:55:57;7.10;;;1.83;;
53409;SDS011;66590;50.734;4.246;2023-05-16T08:58:25;8.57;;;1.85;;
53409;SDS011;66590;50.734;4.246;2023-05-16T09:00:53;9.38;;;1.30;;
53409;SDS011;66590;50.734;4.246;2023-05-16T09:03:21;6.40;;;1.60;;
53409;SDS011;66590;50.734;4.246;2023-05-16T09:05:48;7.28;;;1.50;;
53409;SDS011;66590;50.734;4.246;2023-05-16T09:08:17;4.53;;;1.30;;
53409;SDS011;66590;50.734;4.246;2023-05-16T09:10:44;7.55;;;1.65;;
53409;SDS011;66590;50.734;4.246;2023-05-16T09:13:11;5.18;;;1.17;;
53409;SDS011;66590;50.734;4.246;2023-05-16T09:15:40;5.35;;;1.35;;
53409;SDS011;66590;50.734;4.246;2023-05-16T09:18:10;5.40;;;1.40;;
53409;SDS011;66590;50.734;4.246;2023-05-16T09:20:41;7.53;;;1.75;;
53409;SDS011;66590;50.734;4.246;2023-05-16T09:23:09;6.82;;;1.40;;
53409;SDS011;66590;50.734;4.246;2023-05-16T09:25:38;6.25;;;1.58;;
53409;SDS011;66590;50.734;4.246;2023-05-16T09:28:09;6.78;;;2.10;;
53409;SDS011;66590;50.734;4.246;2023-05-16T09:30:37;4.10;;;1.65;;
53409;SDS011;66590;50.734;4.246;2023-05-16T09:33:05;10.63;;;1.73;;
53409;SDS011;66590;50.734;4.246;2023-05-16T09:35:32;10.75;;;1.80;;
53409;SDS011;66590;50.734;4.246;2023-05-16T09:38:13;6.50;;;1.48;;
53409;SDS011;66590;50.734;4.246;2023-05-16T09:40:42;12.30;;;2.42;;
53409;SDS011;66590;50.734;4.246;2023-05-16T09:43:10;7.68;;;1.63;;
53409;SDS011;66590;50.734;4.246;2023-05-16T09:45:44;5.57;;;1.48;;
53409;SDS011;66590;50.734;4.246;2023-05-16T09:48:11;5.72;;;1.30;;
53409;SDS011;66590;50.734;4.246;2023-05-16T09:50:40;8.55;;;1.77;;
53409;SDS011;66590;50.734;4.246;2023-05-16T09:53:12;3.47;;;1.33;;
53409;SDS011;66590;50.734;4.246;2023-05-16T09:55:39;3.95;;;1.10;;
53409;SDS011;66590;50.734;4.246;2023-05-16T09:58:08;3.63;;;1.20;;
53409;SDS011;66590;50.734;4.246;2023-05-16T10:00:35;4.70;;;1.10;;
53409;SDS011;66590;50.734;4.246;2023-05-16T10:03:03;4.25;;;1.35;;
53409;SDS011;66590;50.734;4.246;2023-05-16T10:05:31;5.85;;;1.33;;
53409;SDS011;66590;50.734;4.246;2023-05-16T10:07:59;5.45;;;1.73;;
53409;SDS011;66590;50.734;4.246;2023-05-16T10:10:28;4.50;;;1.40;;
53409;SDS011;66590;50.734;4.246;2023-05-16T10:12:57;3.38;;;0.90;;
53409;SDS011;66590;50.734;4.246;2023-05-16T10:15:30;4.18;;;1.10;;
53409;SDS011;66590;50.734;4.246;2023-05-16T10:17:58;4.50;;;1.17;;
53409;SDS011;66590;50.734;4.246;2023-05-16T10:20:26;4.50;;;1.13;;
53409;SDS011;66590;50.734;4.246;2023-05-16T10:22:54;6.32;;;1.30;;
53409;SDS011;66590;50.734;4.246;2023-05-16T10:25:24;3.65;;;0.90;;
53409;SDS011;66590;50.734;4.246;2023-05-16T10:27:55;5.47;;;1.25;;
53409;SDS011;66590;50.734;4.246;2023-05-16T10:30:22;4.70;;;1.35;;
53409;SDS011;66590;50.734;4.246;2023-05-16T10:32:51;3.92;;;1.25;;
53409;SDS011;66590;50.734;4.246;2023-05-16T10:35:19;3.28;;;1.10;;
53409;SDS011;66590;50.734;4.246;2023-05-16T10:37:46;5.72;;;1.40;;
53409;SDS011;66590;50.734;4.246;2023-05-16T10:40:14;5.57;;;1.10;;
53409;SDS011;66590;50.734;4.246;2023-05-16T10:42:43;7.10;;;1.30;;
53409;SDS011;66590;50.734;4.246;2023-05-16T10:45:19;4.85;;;1.40;;
53409;SDS011;66590;50.734;4.246;2023-05-16T10:47:51;8.80;;;1.50;;
53409;SDS011;66590;50.734;4.246;2023-05-16T10:50:35;5.55;;;1.40;;
53409;SDS011;66590;50.734;4.246;2023-05-16T10:53:12;4.25;;;1.40;;
53409;SDS011;66590;50.734;4.246;2023-05-16T10:55:43;4.60;;;1.52;;
53409;SDS011;66590;50.734;4.246;2023-05-16T10:58:11;6.25;;;1.20;;
53409;SDS011;66590;50.734;4.246;2023-05-16T11:00:38;4.72;;;1.20;;
53409;SDS011;66590;50.734;4.246;2023-05-16T11:03:09;5.15;;;1.20;;
53409;SDS011;66590;50.734;4.246;2023-05-16T11:05:49;4.43;;;1.40;;
53409;SDS011;66590;50.734;4.246;2023-05-16T11:08:17;5.88;;;1.40;;
53409;SDS011;66590;50.734;4.246;2023-05-16T11:10:44;3.97;;;1.23;;
53409;SDS011;66590;50.734;4.246;2023-05-16T11:13:11;8.18;;;1.42;;
53409;SDS011;66590;50.734;4.246;2023-05-16T11:15:38;10.98;;;1.67;;
53409;SDS011;66590;50.734;4.246;2023-05-16T11:18:07;4.25;;;1.40;;
53409;SDS011;66590;50.734;4.246;2023-05-16T11:20:35;6.03;;;1.67;;
53409;SDS011;66590;50.734;4.246;2023-05-16T11:23:19;4.28;;;1.20;;
53409;SDS011;66590;50.734;4.246;2023-05-16T11:25:49;5.30;;;1.30;;
53409;SDS011;66590;50.734;4.246;2023-05-16T11:28:19;4.20;;;1.13;;
53409;SDS011;66590;50.734;4.246;2023-05-16T11:30:47;3.15;;;1.42;;
53409;SDS011;66590;50.734;4.246;2023-05-16T11:33:16;6.70;;;1.20;;
53409;SDS011;66590;50.734;4.246;2023-05-16T11:35:58;4.60;;;1.17;;
53409;SDS011;66590;50.734;4.246;2023-05-16T11:38:41;6.00;;;1.30;;
53409;SDS011;66590;50.734;4.246;2023-05-16T11:41:09;4.15;;;1.30;;
53409;SDS011;66590;50.734;4.246;2023-05-16T11:43:37;4.80;;;1.63;;
53409;SDS011;66590;50.734;4.246;2023-05-16T11:46:05;7.68;;;1.50;;
53409;SDS011;66590;50.734;4.246;2023-05-16T11:48:34;4.63;;;1.63;;
53409;SDS011;66590;50.734;4.246;2023-05-16T11:51:02;3.50;;;1.30;;
53409;SDS011;66590;50.734;4.246;2023-05-16T11:53:29;6.20;;;1.40;;
53409;SDS011;66590;50.734;4.246;2023-05-16T11:55:56;7.55;;;1.48;;
53409;SDS011;66590;50.734;4.246;2023-05-16T11:58:24;6.90;;;1.67;;
53409;SDS011;66590;50.734;4.246;2023-05-16T12:00:52;7.28;;;1.48;;
53409;SDS011;66590;50.734;4.246;2023-05-16T12:03:19;6.28;;;1.08;;
53409;SDS011;66590;50.734;4.246;2023-05-16T12:05:52;7.05;;;1.38;;
53409;SDS011;66590;50.734;4.246;2023-05-16T12:08:19;4.50;;;1.20;;
53409;SDS011;66590;50.734;4.246;2023-05-16T12:10:47;4.97;;;1.10;;
53409;SDS011;66590;50.734;4.246;2023-05-16T12:13:15;5.63;;;1.20;;
53409;SDS011;66590;50.734;4.246;2023-05-16T12:15:45;6.35;;;1.25;;
53409;SDS011;66590;50.734;4.246;2023-05-16T12:18:12;5.30;;;1.10;;
53409;SDS011;66590;50.734;4.246;2023-05-16T12:20:41;4.07;;;1.20;;
53409;SDS011;66590;50.734;4.246;2023-05-16T12:23:11;4.25;;;1.50;;
53409;SDS011;66590;50.734;4.246;2023-05-16T12:25:38;6.35;;;1.58;;
53409;SDS011;66590;50.734;4.246;2023-05-16T12:28:11;4.68;;;1.42;;
53409;SDS011;66590;50.734;4.246;2023-05-16T12:30:39;3.33;;;1.10;;
53409;SDS011;66590;50.734;4.246;2023-05-16T12:33:08;5.30;;;1.20;;
53409;SDS011;66590;50.734;4.246;2023-05-16T12:35:38;5.68;;;1.42;;
53409;SDS011;66590;50.734;4.246;2023-05-16T12:38:06;4.30;;;1.35;;
53409;SDS011;66590;50.734;4.246;2023-05-16T12:40:36;4.38;;;1.10;;
53409;SDS011;66590;50.734;4.246;2023-05-16T12:43:04;3.97;;;1.05;;
53409;SDS011;66590;50.734;4.246;2023-05-16T12:45:38;4.63;;;1.58;;
53409;SDS011;66590;50.734;4.246;2023-05-16T12:48:07;2.55;;;0.90;;
53409;SDS011;66590;50.734;4.246;2023-05-16T12:50:37;4.57;;;1.15;;
53409;SDS011;66590;50.734;4.246;2023-05-16T12:53:09;4.05;;;1.17;;
53409;SDS011;66590;50.734;4.246;2023-05-16T12:55:38;12.27;;;1.40;;
53409;SDS011;66590;50.734;4.246;2023-05-16T12:58:06;5.45;;;1.33;;
53409;SDS011;66590;50.734;4.246;2023-05-16T13:00:33;5.82;;;1.38;;
53409;SDS011;66590;50.734;4.246;2023-05-16T13:03:00;5.88;;;1.50;;
53409;SDS011;66590;50.734;4.246;2023-05-16T13:05:27;5.38;;;1.80;;
53409;SDS011;66590;50.734;4.246;2023-05-16T13:07:54;3.97;;;1.60;;
53409;SDS011;66590;50.734;4.246;2023-05-16T13:10:21;5.80;;;1.63;;
53409;SDS011;66590;50.734;4.246;2023-05-16T13:12:50;5.22;;;1.35;;
53409;SDS011;66590;50.734;4.246;2023-05-16T13:15:17;6.03;;;1.60;;
53409;SDS011;66590;50.734;4.246;2023-05-16T13:17:44;3.50;;;1.15;;
53409;SDS011;66590;50.734;4.246;2023-05-16T13:20:11;4.75;;;1.30;;
53409;SDS011;66590;50.734;4.246;2023-05-16T13:22:39;3.08;;;1.25;;
53409;SDS011;66590;50.734;4.246;2023-05-16T13:25:06;5.97;;;1.05;;
53409;SDS011;66590;50.734;4.246;2023-05-16T13:27:35;6.00;;;1.10;;
53409;SDS011;66590;50.734;4.246;2023-05-16T13:30:04;3.83;;;1.10;;
53409;SDS011;66590;50.734;4.246;2023-05-16T13:32:32;3.72;;;1.10;;
53409;SDS011;66590;50.734;4.246;2023-05-16T13:34:59;4.45;;;1.30;;
53409;SDS011;66590;50.734;4.246;2023-05-16T13:37:26;2.80;;;1.25;;
53409;SDS011;66590;50.734;4.246;2023-05-16T13:39:53;8.02;;;1.67;;
53409;SDS011;66590;50.734;4.246;2023-05-16T13:42:20;5.38;;;1.20;;
53409;SDS011;66590;50.734;4.246;2023-05-16T13:44:49;8.35;;;1.92;;
53409;SDS011;66590;50.734;4.246;2023-05-16T13:47:18;4.10;;;1.40;;
53409;SDS011;66590;50.734;4.246;2023-05-16T13:49:45;6.85;;;1.90;;
53409;SDS011;66590;50.734;4.246;2023-05-16T13:52:12;4.70;;;1.23;;
53409;SDS011;66590;50.734;4.246;2023-05-16T13:54:39;4.40;;;1.17;;
53409;SDS011;66590;50.734;4.246;2023-05-16T13:57:06;3.65;;;1.33;;
53409;SDS011;66590;50.734;4.246;2023-05-16T13:59:33;4.95;;;1.58;;
53409;SDS011;66590;50.734;4.246;2023-05-16T14:02:22;4.28;;;1.30;;
53409;SDS011;66590;50.734;4.246;2023-05-16T14:04:49;4.60;;;1.30;;
53409;SDS011;66590;50.734;4.246;2023-05-16T14:07:16;4.35;;;1.25;;
53409;SDS011;66590;50.734;4.246;2023-05-16T14:09:43;4.65;;;1.52;;
53409;SDS011;66590;50.734;4.246;2023-05-16T14:12:10;6.03;;;1.30;;
53409;SDS011;66590;50.734;4.246;2023-05-16T14:14:37;4.57;;;1.65;;
53409;SDS011;66590;50.734;4.246;2023-05-16T14:17:04;4.05;;;1.67;;
53409;SDS011;66590;50.734;4.246;2023-05-16T14:19:33;3.42;;;1.00;;
53409;SDS011;66590;50.734;4.246;2023-05-16T14:22:00;7.35;;;1.65;;
53409;SDS011;66590;50.734;4.246;2023-05-16T14:24:27;4.63;;;1.33;;
53409;SDS011;66590;50.734;4.246;2023-05-16T14:26:54;5.35;;;1.40;;
53409;SDS011;66590;50.734;4.246;2023-05-16T14:29:21;3.65;;;1.42;;
53409;SDS011;66590;50.734;4.246;2023-05-16T14:31:48;4.50;;;1.60;;
53409;SDS011;66590;50.734;4.246;2023-05-16T14:34:15;3.47;;;1.23;;
53409;SDS011;66590;50.734;4.246;2023-05-16T14:36:44;5.00;;;1.27;;
53409;SDS011;66590;50.734;4.246;2023-05-16T14:39:14;4.15;;;1.23;;
53409;SDS011;66590;50.734;4.246;2023-05-16T14:41:41;4.30;;;1.60;;
53409;SDS011;66590;50.734;4.246;2023-05-16T14:44:08;5.65;;;1.70;;
53409;SDS011;66590;50.734;4.246;2023-05-16T14:46:35;7.72;;;1.40;;
53409;SDS011;66590;50.734;4.246;2023-05-16T14:49:02;5.53;;;1.42;;